createdAt,value
2022-08-10T00:00:33.449Z,26.89
2022-08-10T00:02:39.484Z,26.9
2022-08-10T00:04:44.071Z,26.91
2022-08-10T00:06:48.698Z,26.89
2022-08-10T00:08:53.316Z,26.88
2022-08-10T00:10:57.838Z,26.85
2022-08-10T00:13:04.400Z,26.83
2022-08-10T00:15:09.030Z,26.82
2022-08-10T00:17:57.166Z,26.78
2022-08-10T00:20:02.692Z,26.76
2022-08-10T00:22:16.817Z,26.76
2022-08-10T00:24:21.781Z,26.78
2022-08-10T00:26:26.305Z,26.78
2022-08-10T00:30:06.973Z,26.76
2022-08-10T00:32:11.596Z,26.77
2022-08-10T00:34:16.320Z,26.77
2022-08-10T00:36:20.945Z,26.75
2022-08-10T00:38:25.479Z,26.76
2022-08-10T00:40:35.313Z,26.77
2022-08-10T00:42:42.791Z,26.75
2022-08-10T00:44:47.417Z,26.74
2022-08-10T00:46:51.943Z,26.74
2022-08-10T00:49:00.462Z,26.72
2022-08-10T00:51:05.409Z,26.7
2022-08-10T00:53:09.999Z,26.7
2022-08-10T00:55:14.512Z,26.71
2022-08-10T00:57:19.136Z,26.69
2022-08-10T00:59:23.656Z,26.67
2022-08-10T01:02:10.399Z,26.66
2022-08-10T01:04:35.850Z,26.64
2022-08-10T01:07:05.890Z,26.63
2022-08-10T01:09:10.513Z,26.63
2022-08-10T01:11:42.298Z,26.62
2022-08-10T01:14:45.364Z,26.62
2022-08-10T01:16:49.988Z,26.62
2022-08-10T01:18:54.512Z,26.61
2022-08-10T01:20:59.133Z,26.62
2022-08-10T01:23:03.641Z,26.6
2022-08-10T01:25:09.497Z,26.59
2022-08-10T01:27:14.119Z,26.59
2022-08-10T01:29:18.740Z,26.6
2022-08-10T01:31:23.254Z,26.58
2022-08-10T01:33:28.842Z,26.56
2022-08-10T01:36:06.293Z,26.56
2022-08-10T01:38:11.012Z,26.56
2022-08-10T01:40:16.670Z,26.54
2022-08-10T01:42:22.202Z,26.54
2022-08-10T01:44:26.728Z,26.52
2022-08-10T01:46:31.244Z,26.52
2022-08-10T01:48:35.864Z,26.51
2022-08-10T01:50:53.507Z,26.51
2022-08-10T01:53:04.976Z,26.51
2022-08-10T01:55:09.601Z,26.54
2022-08-10T01:57:14.225Z,26.55
2022-08-10T01:59:23.752Z,26.55
2022-08-10T02:01:28.373Z,26.54
2022-08-10T02:03:33.101Z,26.53
2022-08-10T02:06:07.722Z,26.51
2022-08-10T02:08:12.346Z,26.5
2022-08-10T02:10:16.866Z,26.48
2022-08-10T02:12:22.407Z,26.48
2022-08-10T02:14:32.876Z,26.48
2022-08-10T02:16:38.505Z,26.46
2022-08-10T02:18:43.024Z,26.47
2022-08-10T02:20:47.651Z,26.46
2022-08-10T02:22:52.588Z,26.46
2022-08-10T02:24:57.306Z,26.43
2022-08-10T02:27:02.025Z,26.42
2022-08-10T02:29:07.874Z,26.38
2022-08-10T02:31:12.495Z,26.36
2022-08-10T02:33:18.963Z,26.35
2022-08-10T02:35:31.512Z,26.35
2022-08-10T02:38:00.057Z,26.34
2022-08-10T02:40:04.670Z,26.33
2022-08-10T02:45:17.498Z,26.34
2022-08-10T02:47:46.849Z,26.33
2022-08-10T02:49:56.957Z,26.32
2022-08-10T02:52:05.919Z,26.32
2022-08-10T02:54:13.273Z,26.31
2022-08-10T02:56:17.888Z,26.31
2022-08-10T02:58:22.515Z,26.3
2022-08-10T03:00:27.028Z,26.29
2022-08-10T03:02:31.682Z,26.27
2022-08-10T03:04:54.351Z,26.29
2022-08-10T03:07:02.502Z,26.28
2022-08-10T03:09:07.022Z,26.28
2022-08-10T03:11:11.539Z,26.28
2022-08-10T03:13:16.058Z,26.28
2022-08-10T03:15:20.576Z,26.27
2022-08-10T03:17:25.200Z,26.27
2022-08-10T03:20:04.403Z,26.29
2022-08-10T03:22:43.765Z,26.27
2022-08-10T03:24:48.245Z,26.26
2022-08-10T03:26:52.905Z,26.23
2022-08-10T03:28:57.426Z,26.2
2022-08-10T03:31:02.148Z,26.18
2022-08-10T03:33:06.808Z,26.17
2022-08-10T03:35:11.496Z,26.17
2022-08-10T03:37:16.126Z,26.19
2022-08-10T03:39:20.973Z,26.19
2022-08-10T03:41:25.665Z,26.2
2022-08-10T03:43:39.300Z,26.19
2022-08-10T03:45:48.521Z,26.21
2022-08-10T03:48:00.247Z,26.21
2022-08-10T03:50:25.948Z,26.19
2022-08-10T03:52:55.640Z,26.17
2022-08-10T03:55:00.260Z,26.19
2022-08-10T03:57:04.888Z,26.18
2022-08-10T03:59:09.506Z,26.16
2022-08-10T04:01:14.039Z,26.14
2022-08-10T04:03:18.852Z,26.13
2022-08-10T04:05:23.474Z,26.12
2022-08-10T04:07:42.738Z,26.1
2022-08-10T04:09:55.845Z,26.12
2022-08-10T04:12:02.627Z,26.11
2022-08-10T04:14:07.255Z,26.1
2022-08-10T04:16:56.417Z,26.07
2022-08-10T04:19:01.344Z,26.07
2022-08-10T04:21:05.860Z,26.07
2022-08-10T04:23:10.486Z,26.09
2022-08-10T04:25:15.207Z,26.06
2022-08-10T04:27:19.829Z,26.06
2022-08-10T04:29:24.347Z,26.04
2022-08-10T04:31:28.970Z,26.04
2022-08-10T04:33:33.593Z,26.03
2022-08-10T04:35:38.215Z,26.04
2022-08-10T04:37:43.477Z,26.03
2022-08-10T04:39:52.126Z,26.01
2022-08-10T04:41:56.785Z,26
2022-08-10T04:44:01.306Z,26
2022-08-10T04:46:13.986Z,25.99
2022-08-10T04:49:03.083Z,25.99
2022-08-10T04:51:59.517Z,26.01
2022-08-10T04:54:07.019Z,26.01
2022-08-10T04:56:18.642Z,26.01
2022-08-10T04:58:34.578Z,25.99
2022-08-10T05:00:39.118Z,25.99
2022-08-10T05:02:44.029Z,25.99
2022-08-10T05:04:48.647Z,25.97
2022-08-10T05:06:53.271Z,25.97
2022-08-10T05:08:57.786Z,25.96
2022-08-10T05:11:02.313Z,25.95
2022-08-10T05:13:06.932Z,25.9
2022-08-10T05:15:11.457Z,25.89
2022-08-10T05:17:15.973Z,25.89
2022-08-10T05:19:24.821Z,25.91
2022-08-10T05:22:11.092Z,25.89
2022-08-10T05:24:15.711Z,25.88
2022-08-10T05:26:20.230Z,25.9
2022-08-10T05:28:24.848Z,25.91
2022-08-10T05:30:38.892Z,25.93
2022-08-10T05:32:55.995Z,25.93
2022-08-10T05:35:11.486Z,25.95
2022-08-10T05:38:08.621Z,25.94
2022-08-10T05:40:18.578Z,25.95
2022-08-10T05:42:23.202Z,25.92
2022-08-10T05:44:27.932Z,25.93
2022-08-10T05:46:32.550Z,25.93
2022-08-10T05:48:40.524Z,25.89
2022-08-10T05:51:04.623Z,25.86
2022-08-10T05:53:56.753Z,25.84
2022-08-10T05:56:10.243Z,25.8
2022-08-10T05:58:14.914Z,25.78
2022-08-10T06:00:36.044Z,25.78
2022-08-10T06:02:52.933Z,25.82
2022-08-10T06:04:57.754Z,25.83
2022-08-10T06:07:02.377Z,25.86
2022-08-10T06:09:06.893Z,25.89
2022-08-10T06:12:25.828Z,25.89
2022-08-10T06:15:00.143Z,25.95
2022-08-10T06:17:59.237Z,25.99
2022-08-10T06:20:06.971Z,26
2022-08-10T06:22:11.592Z,26.02
2022-08-10T06:24:16.212Z,26.04
2022-08-10T06:26:28.210Z,26.04
2022-08-10T06:28:33.040Z,26.05
2022-08-10T06:30:37.761Z,26.04
2022-08-10T06:32:42.519Z,26.05
2022-08-10T06:34:47.104Z,26.06
2022-08-10T06:36:51.726Z,26.06
2022-08-10T06:39:06.979Z,26.05
2022-08-10T06:41:57.542Z,26.05
2022-08-10T06:44:21.779Z,26.07
2022-08-10T06:46:26.596Z,26.09
2022-08-10T06:48:31.082Z,26.12
2022-08-10T06:50:45.664Z,26.13
2022-08-10T06:53:02.993Z,26.15
2022-08-10T06:55:08.332Z,26.16
2022-08-10T06:57:19.336Z,26.15
2022-08-10T06:59:24.025Z,26.14
2022-08-10T07:01:28.747Z,26.12
2022-08-10T07:03:33.582Z,26.12
2022-08-10T07:05:38.245Z,26.09
2022-08-10T07:07:45.273Z,26.07
2022-08-10T07:09:49.901Z,26.05
2022-08-10T07:11:54.413Z,26.05
2022-08-10T07:14:13.872Z,26.06
2022-08-10T07:16:22.101Z,26.05
2022-08-10T07:18:26.921Z,26.06
2022-08-10T07:20:34.409Z,26.04
2022-08-10T07:23:00.989Z,26.03
2022-08-10T07:26:05.374Z,26.04
2022-08-10T07:28:09.885Z,26.04
2022-08-10T07:30:14.609Z,26.04
2022-08-10T07:32:19.137Z,26.02
2022-08-10T07:34:28.963Z,26.03
2022-08-10T07:36:34.108Z,26.04
2022-08-10T07:38:38.627Z,26.05
2022-08-10T07:40:43.248Z,26.03
2022-08-10T07:42:48.381Z,26.03
2022-08-10T07:44:52.999Z,26.04
2022-08-10T07:46:57.515Z,26.06
2022-08-10T07:49:02.141Z,26.05
2022-08-10T07:51:23.353Z,26.02
2022-08-10T07:53:27.980Z,26.03
2022-08-10T07:56:03.069Z,26.03
2022-08-10T07:58:51.701Z,26.04
2022-08-10T08:00:57.314Z,26.04
2022-08-10T08:03:01.828Z,26.04
2022-08-10T08:05:06.456Z,26.04
2022-08-10T08:07:11.176Z,26.04
2022-08-10T08:09:24.095Z,26.06
2022-08-10T08:11:28.715Z,26.06
2022-08-10T08:13:33.333Z,26.05
2022-08-10T08:16:18.918Z,26.08
2022-08-10T08:18:26.092Z,26.09
2022-08-10T08:20:30.715Z,26.09
2022-08-10T08:24:03.868Z,26.08
2022-08-10T08:26:37.208Z,26.09
2022-08-10T08:28:41.829Z,26.13
2022-08-10T08:30:48.867Z,26.13
2022-08-10T08:32:53.630Z,26.13
2022-08-10T08:34:58.254Z,26.13
2022-08-10T08:37:02.880Z,26.11
2022-08-10T08:39:07.528Z,26.11
2022-08-10T08:41:12.227Z,26.12
2022-08-10T08:43:17.980Z,26.13
2022-08-10T08:45:30.986Z,26.14
2022-08-10T08:48:02.509Z,26.14
2022-08-10T08:50:10.425Z,26.15
2022-08-10T08:52:17.971Z,26.16
2022-08-10T08:54:23.264Z,26.16
2022-08-10T08:56:27.885Z,26.12
2022-08-10T08:58:32.508Z,26.09
2022-08-10T09:00:37.030Z,26.08
2022-08-10T09:02:41.746Z,26.07
2022-08-10T09:04:57.021Z,26.05
2022-08-10T09:07:01.646Z,26.04
2022-08-10T09:09:06.165Z,26.03
2022-08-10T09:11:11.713Z,26.04
2022-08-10T09:13:16.230Z,26.05
2022-08-10T09:15:39.406Z,26.06
2022-08-10T09:17:45.343Z,26.07
2022-08-10T09:19:50.062Z,26.09
2022-08-10T09:21:58.538Z,26.1
2022-08-10T09:24:22.856Z,26.09
2022-08-10T09:26:27.680Z,26.08
2022-08-10T09:28:32.210Z,26.07
2022-08-10T09:30:38.622Z,26.08
2022-08-10T09:35:39.986Z,26.09
2022-08-10T09:38:36.872Z,26.15
2022-08-10T09:40:58.714Z,26.19
2022-08-10T09:43:25.076Z,26.21
2022-08-10T09:45:30.988Z,26.21
2022-08-10T09:47:58.892Z,26.23
2022-08-10T09:50:06.846Z,26.25
2022-08-10T09:52:11.471Z,26.27
2022-08-10T09:54:16.199Z,26.28
2022-08-10T09:56:23.256Z,26.29
2022-08-10T09:58:32.606Z,26.28
2022-08-10T10:00:37.131Z,26.25
2022-08-10T10:02:41.745Z,26.24
2022-08-10T10:04:46.379Z,26.25
2022-08-10T10:06:50.906Z,26.25
2022-08-10T10:08:58.431Z,26.23
2022-08-10T10:11:14.768Z,26.21
2022-08-10T10:13:19.408Z,26.19
2022-08-10T10:16:10.713Z,26.18
2022-08-10T10:18:15.241Z,26.16
2022-08-10T10:20:19.751Z,26.15
2022-08-10T10:22:24.471Z,26.15
2022-08-10T10:24:29.190Z,26.16
2022-08-10T10:26:33.821Z,26.16
2022-08-10T10:29:11.723Z,26.16
2022-08-10T10:32:02.116Z,26.18
2022-08-10T10:34:06.836Z,26.19
2022-08-10T10:36:11.565Z,26.18
2022-08-10T10:38:16.493Z,26.19
2022-08-10T10:40:21.217Z,26.2
2022-08-10T10:42:44.093Z,26.21
2022-08-10T10:44:49.703Z,26.22
2022-08-10T10:46:54.337Z,26.22
2022-08-10T10:48:58.848Z,26.24
2022-08-10T10:51:07.134Z,26.25
2022-08-10T10:53:14.678Z,26.26
2022-08-10T10:55:19.584Z,26.29
2022-08-10T10:57:24.197Z,26.3
2022-08-10T11:00:05.185Z,26.32
2022-08-10T11:02:09.827Z,26.33
2022-08-10T11:04:15.139Z,26.35
2022-08-10T11:06:19.754Z,26.34
2022-08-10T11:08:27.630Z,26.37
2022-08-10T11:10:37.482Z,26.37
2022-08-10T11:12:55.336Z,26.38
2022-08-10T11:16:31.186Z,26.41
2022-08-10T11:18:35.708Z,26.42
2022-08-10T11:20:40.532Z,26.46
2022-08-10T11:22:45.258Z,26.43
2022-08-10T11:24:50.507Z,26.37
2022-08-10T11:26:55.211Z,26.31
2022-08-10T11:28:59.830Z,26.27
2022-08-10T11:31:04.459Z,26.24
2022-08-10T11:33:08.994Z,26.26
2022-08-10T11:35:13.632Z,26.32
2022-08-10T11:37:18.422Z,26.36
2022-08-10T11:39:23.088Z,26.42
2022-08-10T11:42:05.990Z,26.47
2022-08-10T11:44:37.725Z,26.54
2022-08-10T11:46:42.552Z,26.57
2022-08-10T11:48:52.699Z,26.62
2022-08-10T11:51:06.740Z,26.65
2022-08-10T11:53:11.310Z,26.69
2022-08-10T11:55:15.985Z,26.71
2022-08-10T11:57:21.200Z,26.75
2022-08-10T11:59:57.759Z,26.8
2022-08-10T12:02:03.475Z,26.8
2022-08-10T12:04:11.919Z,26.79
2022-08-10T12:06:24.723Z,26.8
2022-08-10T12:10:08.091Z,26.78
2022-08-10T12:12:18.146Z,26.77
2022-08-10T12:14:23.234Z,26.78
2022-08-10T12:16:27.907Z,26.8
2022-08-10T12:18:32.872Z,26.81
2022-08-10T12:20:37.556Z,26.81
2022-08-10T12:22:42.189Z,26.84
2022-08-10T12:24:46.657Z,26.85
2022-08-10T12:26:51.214Z,26.85
2022-08-10T12:28:55.736Z,26.86
2022-08-10T12:31:00.253Z,26.87
2022-08-10T12:33:04.877Z,26.84
2022-08-10T12:35:09.394Z,26.82
2022-08-10T12:37:25.489Z,26.82
2022-08-10T12:39:30.392Z,26.82
2022-08-10T12:41:41.602Z,26.82
2022-08-10T12:44:04.138Z,26.83
2022-08-10T12:46:12.832Z,26.86
2022-08-10T12:48:17.268Z,26.88
2022-08-10T12:50:31.679Z,26.92
2022-08-10T12:52:38.334Z,26.96
2022-08-10T12:54:42.909Z,26.97
2022-08-10T12:56:47.527Z,26.99
2022-08-10T12:58:57.008Z,27
2022-08-10T13:01:15.954Z,27.01
2022-08-10T13:04:16.218Z,27
2022-08-10T13:06:28.450Z,26.96
2022-08-10T13:08:33.060Z,26.93
2022-08-10T13:10:37.692Z,26.9
2022-08-10T13:12:42.414Z,26.89
2022-08-10T13:14:47.856Z,26.89
2022-08-10T13:16:52.383Z,26.87
2022-08-10T13:18:57.117Z,26.87
2022-08-10T13:21:01.901Z,26.86
2022-08-10T13:23:24.169Z,26.82
2022-08-10T13:25:28.654Z,26.77
2022-08-10T13:27:59.564Z,26.69
2022-08-10T13:30:43.360Z,26.65
2022-08-10T13:32:55.456Z,26.62
2022-08-10T13:35:00.115Z,26.59
2022-08-10T13:37:04.902Z,26.56
2022-08-10T13:39:09.837Z,26.57
2022-08-10T13:41:14.555Z,26.58
2022-08-10T13:43:19.174Z,26.61
2022-08-10T13:45:23.798Z,26.65
2022-08-10T13:47:28.424Z,26.67
2022-08-10T13:49:38.668Z,26.68
2022-08-10T13:51:54.689Z,26.69
2022-08-10T13:54:02.198Z,26.7
2022-08-10T13:56:06.927Z,26.75
2022-08-10T13:58:11.598Z,26.75
2022-08-10T14:00:33.196Z,26.76
2022-08-10T14:02:42.450Z,26.77
2022-08-10T14:04:47.071Z,26.78
2022-08-10T14:06:51.691Z,26.77
2022-08-10T14:08:56.314Z,26.78
2022-08-10T14:11:02.163Z,26.81
2022-08-10T14:13:16.102Z,26.82
2022-08-10T14:15:20.581Z,26.79
2022-08-10T14:17:25.242Z,26.75
2022-08-10T14:19:29.710Z,26.74
2022-08-10T14:21:35.715Z,26.76
2022-08-10T14:23:40.334Z,26.76
2022-08-10T14:25:54.283Z,26.78
2022-08-10T14:28:01.701Z,26.76
2022-08-10T14:30:07.854Z,26.73
2022-08-10T14:32:12.471Z,26.72
2022-08-10T14:34:17.111Z,26.75
2022-08-10T14:36:24.375Z,26.77
2022-08-10T14:38:29.313Z,26.81
2022-08-10T14:40:33.927Z,26.83
2022-08-10T14:42:38.570Z,26.87
2022-08-10T14:44:43.047Z,26.87
2022-08-10T14:46:51.507Z,26.86
2022-08-10T14:48:59.381Z,26.89
2022-08-10T14:51:43.994Z,26.88
2022-08-10T14:53:49.385Z,26.9
2022-08-10T14:55:57.512Z,26.91
2022-08-10T14:58:17.474Z,26.92
2022-08-10T15:00:32.954Z,26.94
2022-08-10T15:02:53.265Z,26.96
2022-08-10T15:05:04.308Z,26.98
2022-08-10T15:07:13.841Z,26.99
2022-08-10T15:09:23.999Z,27.01
2022-08-10T15:12:12.586Z,27.04
2022-08-10T15:14:34.232Z,27.09
2022-08-10T15:16:49.761Z,27.1
2022-08-10T15:18:57.790Z,27.11
2022-08-10T15:21:43.100Z,27.13
2022-08-10T15:24:05.005Z,27.14
2022-08-10T15:26:13.776Z,27.15
2022-08-10T15:28:22.795Z,27.16
2022-08-10T15:31:28.550Z,27.16
2022-08-10T15:33:57.218Z,27.18
2022-08-10T15:36:08.927Z,27.2
2022-08-10T15:38:14.160Z,27.21
2022-08-10T15:40:28.125Z,27.21
2022-08-10T15:42:53.822Z,27.2
2022-08-10T15:45:01.805Z,27.19
2022-08-10T15:47:06.430Z,27.17
2022-08-10T15:49:14.720Z,27.16
2022-08-10T15:51:23.054Z,27.14
2022-08-10T15:54:02.219Z,27.12
2022-08-10T15:56:14.491Z,27.09
2022-08-10T15:58:37.662Z,27.08
2022-08-10T16:00:44.411Z,27.06
2022-08-10T16:02:49.345Z,27.06
2022-08-10T16:04:54.374Z,27.05
2022-08-10T16:07:00.835Z,27.07
2022-08-10T16:10:11.607Z,27.09
2022-08-10T16:12:34.038Z,27.12
2022-08-10T16:14:38.874Z,27.14
2022-08-10T16:16:43.501Z,27.16
2022-08-10T16:18:48.112Z,27.15
2022-08-10T16:20:55.340Z,27.15
2022-08-10T16:23:00.029Z,27.13
2022-08-10T16:25:04.651Z,27.15
2022-08-10T16:27:09.265Z,27.16
2022-08-10T16:29:13.889Z,27.17
2022-08-10T16:31:18.416Z,27.16
2022-08-10T16:33:23.036Z,27.15
2022-08-10T16:35:56.938Z,27.16
2022-08-10T16:38:01.606Z,27.16
2022-08-10T16:40:06.554Z,27.18
2022-08-10T16:42:11.419Z,27.17
2022-08-10T16:44:16.041Z,27.15
2022-08-10T16:46:20.605Z,27.15
2022-08-10T16:48:33.249Z,27.15
2022-08-10T16:50:54.584Z,27.17
2022-08-10T16:52:59.203Z,27.16
2022-08-10T16:55:09.604Z,27.15
2022-08-10T16:57:53.612Z,27.16
2022-08-10T16:59:58.232Z,27.18
2022-08-10T17:02:02.899Z,27.19
2022-08-10T17:04:10.051Z,27.2
2022-08-10T17:06:15.167Z,27.19
2022-08-10T17:08:19.887Z,27.19
2022-08-10T17:10:24.515Z,27.18
2022-08-10T17:12:29.085Z,27.19
2022-08-10T17:14:33.757Z,27.2
2022-08-10T17:16:39.095Z,27.21
2022-08-10T17:18:45.110Z,27.21
2022-08-10T17:20:51.146Z,27.2
2022-08-10T17:22:55.756Z,27.2
2022-08-10T17:25:00.355Z,27.2
2022-08-10T17:28:03.517Z,27.19
2022-08-10T17:30:57.764Z,27.23
2022-08-10T17:33:04.910Z,27.26
2022-08-10T17:35:09.544Z,27.28
2022-08-10T17:37:14.146Z,27.3
2022-08-10T17:39:18.758Z,27.31
2022-08-10T17:41:26.563Z,27.31
2022-08-10T17:43:46.023Z,27.3
2022-08-10T17:46:07.137Z,27.3
2022-08-10T17:48:11.754Z,27.29
2022-08-10T17:50:16.586Z,27.27
2022-08-10T17:52:21.125Z,27.28
2022-08-10T17:54:25.831Z,27.27
2022-08-10T17:56:30.559Z,27.27
2022-08-10T17:58:35.291Z,27.26
2022-08-10T18:00:40.110Z,27.24
2022-08-10T18:02:44.782Z,27.21
2022-08-10T18:04:49.554Z,27.18
2022-08-10T18:06:54.287Z,27.14
2022-08-10T18:08:58.907Z,27.12
2022-08-10T18:11:03.627Z,27.09
2022-08-10T18:13:08.350Z,27.05
2022-08-10T18:15:13.493Z,27.02
2022-08-10T18:17:18.315Z,26.99
2022-08-10T18:19:22.854Z,26.96
2022-08-10T18:21:27.450Z,26.93
2022-08-10T18:23:35.114Z,26.93
2022-08-10T18:25:39.606Z,26.93
2022-08-10T18:27:46.441Z,26.94
2022-08-10T18:30:10.542Z,26.95
2022-08-10T18:32:15.134Z,26.98
2022-08-10T18:34:19.755Z,26.98
2022-08-10T18:36:24.238Z,26.96
2022-08-10T18:38:28.905Z,26.95
2022-08-10T18:40:35.330Z,26.96
2022-08-10T18:42:40.809Z,26.94
2022-08-10T18:44:45.327Z,26.91
2022-08-10T18:46:49.942Z,26.92
2022-08-10T18:48:54.466Z,26.88
2022-08-10T18:51:01.562Z,26.89
2022-08-10T18:53:09.849Z,26.88
2022-08-10T18:55:22.926Z,26.88
2022-08-10T18:57:48.796Z,26.89
2022-08-10T19:00:03.433Z,26.88
2022-08-10T19:02:13.100Z,26.89
2022-08-10T19:04:17.603Z,26.9
2022-08-10T19:06:22.230Z,26.92
2022-08-10T19:08:30.963Z,26.89
2022-08-10T19:10:36.695Z,26.88
2022-08-10T19:12:41.314Z,26.84
2022-08-10T19:14:46.044Z,26.78
2022-08-10T19:16:50.665Z,26.77
2022-08-10T19:18:55.275Z,26.76
2022-08-10T19:20:59.810Z,26.72
2022-08-10T19:23:05.845Z,26.72
2022-08-10T19:25:10.683Z,26.75
2022-08-10T19:27:15.303Z,26.79
2022-08-10T19:30:10.420Z,26.81
2022-08-10T19:32:17.805Z,26.81
2022-08-10T19:34:22.420Z,26.81
2022-08-10T19:36:29.908Z,26.79
2022-08-10T19:38:34.528Z,26.76
2022-08-10T19:40:49.410Z,26.74
2022-08-10T19:42:55.763Z,26.72
2022-08-10T19:45:00.480Z,26.7
2022-08-10T19:47:04.996Z,26.68
2022-08-10T19:49:09.622Z,26.67
2022-08-10T19:51:14.343Z,26.66
2022-08-10T19:53:18.867Z,26.65
2022-08-10T19:55:29.524Z,26.68
2022-08-10T19:57:34.150Z,26.69
2022-08-10T20:00:02.230Z,26.68
2022-08-10T20:02:32.056Z,26.66
2022-08-10T20:04:36.644Z,26.65
2022-08-10T20:06:41.166Z,26.65
2022-08-10T20:08:45.793Z,26.64
2022-08-10T20:10:50.511Z,26.64
2022-08-10T20:12:55.137Z,26.63
2022-08-10T20:15:03.646Z,26.63
2022-08-10T20:17:08.675Z,26.64
2022-08-10T20:19:13.303Z,26.64
2022-08-10T20:21:17.849Z,26.62
2022-08-10T20:23:22.440Z,26.62
2022-08-10T20:25:27.158Z,26.64
2022-08-10T20:27:36.681Z,26.65
2022-08-10T20:30:05.584Z,26.64
2022-08-10T20:32:10.312Z,26.62
2022-08-10T20:34:15.033Z,26.61
2022-08-10T20:36:19.656Z,26.59
2022-08-10T20:38:25.556Z,26.58
2022-08-10T20:40:32.485Z,26.57
2022-08-10T20:42:36.998Z,26.55
2022-08-10T20:44:41.622Z,26.55
2022-08-10T20:46:46.158Z,26.54
2022-08-10T20:48:50.681Z,26.55
2022-08-10T20:50:55.295Z,26.55
2022-08-10T20:52:59.918Z,26.56
2022-08-10T20:55:05.764Z,26.6
2022-08-10T20:57:53.377Z,26.64
2022-08-10T21:00:09.977Z,26.7
2022-08-10T21:02:18.952Z,26.74
2022-08-10T21:04:32.047Z,26.76
2022-08-10T21:06:43.079Z,26.77
2022-08-10T21:08:48.451Z,26.81
2022-08-10T21:10:53.176Z,26.84
2022-08-10T21:12:59.636Z,26.86
2022-08-10T21:15:04.265Z,26.89
2022-08-10T21:17:08.879Z,26.88
2022-08-10T21:19:15.350Z,26.88
2022-08-10T21:21:30.539Z,26.89
2022-08-10T21:23:46.500Z,26.88
2022-08-10T21:25:51.768Z,26.88
2022-08-10T21:28:04.451Z,26.87
2022-08-10T21:30:09.524Z,26.87
2022-08-10T21:32:15.121Z,26.89
2022-08-10T21:34:31.660Z,26.92
2022-08-10T21:36:36.448Z,26.95
2022-08-10T21:38:42.712Z,26.99
2022-08-10T21:41:18.489Z,27.02
2022-08-10T21:43:23.900Z,27.01
2022-08-10T21:45:58.848Z,27
2022-08-10T21:48:06.781Z,26.97
2022-08-10T21:50:32.722Z,26.94
2022-08-10T21:52:53.601Z,26.91
2022-08-10T21:55:08.541Z,26.89
2022-08-10T21:57:13.442Z,26.88
2022-08-10T21:59:18.172Z,26.87
2022-08-10T22:01:26.084Z,26.87
2022-08-10T22:03:46.157Z,26.87
2022-08-10T22:05:56.513Z,26.87
2022-08-10T22:08:01.229Z,26.85
2022-08-10T22:10:07.394Z,26.85
2022-08-10T22:12:24.803Z,26.84
2022-08-10T22:14:37.938Z,26.84
2022-08-10T22:16:45.212Z,26.84
2022-08-10T22:18:53.924Z,26.84
2022-08-10T22:33:36.215Z,26.92
2022-08-10T22:35:40.839Z,26.91
2022-08-10T22:37:45.610Z,26.91
2022-08-10T22:40:07.448Z,26.91
2022-08-10T22:42:17.737Z,26.9
2022-08-10T22:44:22.357Z,26.88
2022-08-10T22:46:26.989Z,26.87
2022-08-10T22:48:31.710Z,26.86
2022-08-10T22:50:36.424Z,26.85
2022-08-10T22:52:58.885Z,26.86
2022-08-10T22:55:09.226Z,26.85
2022-08-10T22:57:13.892Z,26.85
2022-08-10T22:59:18.565Z,26.84
2022-08-10T23:01:23.119Z,26.84
2022-08-10T23:03:27.812Z,26.82
2022-08-10T23:05:41.853Z,26.81
2022-08-10T23:07:51.082Z,26.81
2022-08-10T23:09:55.710Z,26.81
2022-08-10T23:12:00.333Z,26.81
2022-08-10T23:14:06.995Z,26.81
2022-08-10T23:16:11.624Z,26.81
2022-08-10T23:18:16.548Z,26.81
2022-08-10T23:20:21.172Z,26.8
2022-08-10T23:22:25.685Z,26.81
2022-08-10T23:24:30.211Z,26.79
2022-08-10T23:26:36.366Z,26.8
2022-08-10T23:28:57.366Z,26.79
2022-08-10T23:31:15.916Z,26.77
2022-08-10T23:34:09.897Z,26.75
2022-08-10T23:36:31.942Z,26.74
2022-08-10T23:38:39.515Z,26.73
2022-08-10T23:40:44.138Z,26.72
2022-08-10T23:42:48.755Z,26.71
2022-08-10T23:44:53.483Z,26.71
2022-08-10T23:46:58.100Z,26.7
2022-08-10T23:49:02.826Z,26.69
2022-08-10T23:51:16.035Z,26.7
2022-08-10T23:53:21.105Z,26.7
2022-08-10T23:55:25.905Z,26.7
2022-08-10T23:57:30.527Z,26.69
2022-08-10T23:59:35.147Z,26.68
